sensor_id;sensor_type;location;lat;lon;timestamp;P1;durP1;ratioP1;P2;durP2;ratioP2
22603;SDS011;11469;49.024;8.246;2023-02-28T00:00:07;8.15;;;2.95;;
22603;SDS011;11469;49.024;8.246;2023-02-28T00:02:35;5.55;;;3.08;;
22603;SDS011;11469;49.024;8.246;2023-02-28T00:05:05;6.97;;;3.13;;
22603;SDS011;11469;49.024;8.246;2023-02-28T00:07:31;9.55;;;3.25;;
22603;SDS011;11469;49.024;8.246;2023-02-28T00:09:57;7.63;;;3.13;;
22603;SDS011;11469;49.024;8.246;2023-02-28T00:12:23;6.57;;;3.08;;
22603;SDS011;11469;49.024;8.246;2023-02-28T00:14:49;8.65;;;3.42;;
22603;SDS011;11469;49.024;8.246;2023-02-28T00:17:14;7.57;;;3.72;;
22603;SDS011;11469;49.024;8.246;2023-02-28T00:19:42;7.53;;;3.47;;
22603;SDS011;11469;49.024;8.246;2023-02-28T00:22:08;8.35;;;3.05;;
22603;SDS011;11469;49.024;8.246;2023-02-28T00:24:33;11.52;;;3.03;;
22603;SDS011;11469;49.024;8.246;2023-02-28T00:26:59;7.90;;;2.65;;
22603;SDS011;11469;49.024;8.246;2023-02-28T00:29:24;7.70;;;3.42;;
22603;SDS011;11469;49.024;8.246;2023-02-28T00:31:50;9.80;;;3.72;;
22603;SDS011;11469;49.024;8.246;2023-02-28T00:34:15;7.35;;;3.10;;
22603;SDS011;11469;49.024;8.246;2023-02-28T00:36:40;8.48;;;2.30;;
22603;SDS011;11469;49.024;8.246;2023-02-28T00:39:10;9.00;;;3.25;;
22603;SDS011;11469;49.024;8.246;2023-02-28T00:41:36;7.15;;;3.03;;
22603;SDS011;11469;49.024;8.246;2023-02-28T00:44:01;10.85;;;3.83;;
22603;SDS011;11469;49.024;8.246;2023-02-28T00:46:26;6.45;;;3.30;;
22603;SDS011;11469;49.024;8.246;2023-02-28T00:48:52;8.68;;;2.67;;
22603;SDS011;11469;49.024;8.246;2023-02-28T00:51:17;10.50;;;3.67;;
22603;SDS011;11469;49.024;8.246;2023-02-28T00:53:42;8.63;;;3.25;;
22603;SDS011;11469;49.024;8.246;2023-02-28T00:56:08;5.75;;;3.10;;
22603;SDS011;11469;49.024;8.246;2023-02-28T00:58:33;7.75;;;3.20;;
22603;SDS011;11469;49.024;8.246;2023-02-28T01:00:58;10.30;;;3.58;;
22603;SDS011;11469;49.024;8.246;2023-02-28T01:03:24;7.82;;;3.25;;
22603;SDS011;11469;49.024;8.246;2023-02-28T01:05:49;9.55;;;3.45;;
22603;SDS011;11469;49.024;8.246;2023-02-28T01:08:15;9.38;;;2.95;;
22603;SDS011;11469;49.024;8.246;2023-02-28T01:10:41;10.60;;;3.67;;
22603;SDS011;11469;49.024;8.246;2023-02-28T01:13:07;7.28;;;3.08;;
22603;SDS011;11469;49.024;8.246;2023-02-28T01:15:33;9.07;;;3.60;;
22603;SDS011;11469;49.024;8.246;2023-02-28T01:17:58;8.43;;;3.25;;
22603;SDS011;11469;49.024;8.246;2023-02-28T01:20:24;20.88;;;3.50;;
22603;SDS011;11469;49.024;8.246;2023-02-28T01:22:49;8.07;;;3.22;;
22603;SDS011;11469;49.024;8.246;2023-02-28T01:25:15;5.60;;;3.10;;
22603;SDS011;11469;49.024;8.246;2023-02-28T01:27:40;8.43;;;3.50;;
22603;SDS011;11469;49.024;8.246;2023-02-28T01:30:06;7.43;;;3.35;;
22603;SDS011;11469;49.024;8.246;2023-02-28T01:32:33;8.70;;;2.90;;
22603;SDS011;11469;49.024;8.246;2023-02-28T01:34:58;8.05;;;3.20;;
22603;SDS011;11469;49.024;8.246;2023-02-28T01:37:23;12.50;;;3.15;;
22603;SDS011;11469;49.024;8.246;2023-02-28T01:39:49;7.20;;;3.80;;
22603;SDS011;11469;49.024;8.246;2023-02-28T01:42:14;6.28;;;3.17;;
22603;SDS011;11469;49.024;8.246;2023-02-28T01:44:59;7.85;;;3.20;;
22603;SDS011;11469;49.024;8.246;2023-02-28T01:47:26;6.40;;;3.42;;
22603;SDS011;11469;49.024;8.246;2023-02-28T01:49:54;6.95;;;3.60;;
22603;SDS011;11469;49.024;8.246;2023-02-28T01:52:20;8.98;;;3.10;;
22603;SDS011;11469;49.024;8.246;2023-02-28T01:54:49;7.85;;;3.78;;
22603;SDS011;11469;49.024;8.246;2023-02-28T01:57:19;8.25;;;2.97;;
22603;SDS011;11469;49.024;8.246;2023-02-28T01:59:54;12.55;;;3.85;;
22603;SDS011;11469;49.024;8.246;2023-02-28T02:02:27;8.77;;;3.55;;
22603;SDS011;11469;49.024;8.246;2023-02-28T02:04:55;5.20;;;3.30;;
22603;SDS011;11469;49.024;8.246;2023-02-28T02:07:23;5.80;;;3.10;;
22603;SDS011;11469;49.024;8.246;2023-02-28T02:09:50;12.40;;;3.45;;
22603;SDS011;11469;49.024;8.246;2023-02-28T02:15:19;10.13;;;2.60;;
22603;SDS011;11469;49.024;8.246;2023-02-28T02:18:46;5.78;;;2.85;;
22603;SDS011;11469;49.024;8.246;2023-02-28T02:20:58;7.45;;;2.95;;
22603;SDS011;11469;49.024;8.246;2023-02-28T02:40:30;10.40;;;3.03;;
22603;SDS011;11469;49.024;8.246;2023-02-28T02:43:13;8.65;;;3.30;;
22603;SDS011;11469;49.024;8.246;2023-02-28T02:45:52;9.18;;;3.95;;
22603;SDS011;11469;49.024;8.246;2023-02-28T02:48:31;10.00;;;3.42;;
22603;SDS011;11469;49.024;8.246;2023-02-28T02:51:02;6.63;;;3.70;;
22603;SDS011;11469;49.024;8.246;2023-02-28T02:53:38;6.32;;;3.33;;
22603;SDS011;11469;49.024;8.246;2023-02-28T02:56:09;8.48;;;3.40;;
22603;SDS011;11469;49.024;8.246;2023-02-28T02:58:38;8.93;;;3.50;;
22603;SDS011;11469;49.024;8.246;2023-02-28T03:01:07;11.05;;;3.88;;
22603;SDS011;11469;49.024;8.246;2023-02-28T03:03:35;8.70;;;3.75;;
22603;SDS011;11469;49.024;8.246;2023-02-28T03:06:02;22.15;;;4.40;;
22603;SDS011;11469;49.024;8.246;2023-02-28T03:08:29;8.48;;;4.05;;
22603;SDS011;11469;49.024;8.246;2023-02-28T03:11:00;8.45;;;4.03;;
22603;SDS011;11469;49.024;8.246;2023-02-28T03:21:56;15.02;;;3.90;;
22603;SDS011;11469;49.024;8.246;2023-02-28T03:26:57;8.63;;;3.80;;
22603;SDS011;11469;49.024;8.246;2023-02-28T03:29:39;8.57;;;4.07;;
22603;SDS011;11469;49.024;8.246;2023-02-28T03:32:17;8.45;;;3.88;;
22603;SDS011;11469;49.024;8.246;2023-02-28T03:34:59;12.18;;;3.83;;
22603;SDS011;11469;49.024;8.246;2023-02-28T03:37:31;6.65;;;3.92;;
22603;SDS011;11469;49.024;8.246;2023-02-28T03:40:05;7.43;;;3.90;;
22603;SDS011;11469;49.024;8.246;2023-02-28T03:42:43;8.80;;;3.90;;
22603;SDS011;11469;49.024;8.246;2023-02-28T03:45:13;7.20;;;3.53;;
22603;SDS011;11469;49.024;8.246;2023-02-28T03:52:49;10.93;;;4.15;;
22603;SDS011;11469;49.024;8.246;2023-02-28T03:55:19;9.32;;;4.60;;
22603;SDS011;11469;49.024;8.246;2023-02-28T03:58:01;8.52;;;4.47;;
22603;SDS011;11469;49.024;8.246;2023-02-28T04:00:37;7.10;;;3.97;;
22603;SDS011;11469;49.024;8.246;2023-02-28T04:03:05;12.45;;;4.97;;
22603;SDS011;11469;49.024;8.246;2023-02-28T04:05:30;8.77;;;4.40;;
22603;SDS011;11469;49.024;8.246;2023-02-28T04:08:03;8.05;;;4.10;;
22603;SDS011;11469;49.024;8.246;2023-02-28T04:10:30;10.10;;;4.25;;
22603;SDS011;11469;49.024;8.246;2023-02-28T04:12:56;13.30;;;4.55;;
22603;SDS011;11469;49.024;8.246;2023-02-28T04:15:21;9.15;;;4.47;;
22603;SDS011;11469;49.024;8.246;2023-02-28T04:17:48;11.65;;;4.63;;
22603;SDS011;11469;49.024;8.246;2023-02-28T04:20:13;9.60;;;4.35;;
22603;SDS011;11469;49.024;8.246;2023-02-28T04:22:38;8.45;;;4.72;;
22603;SDS011;11469;49.024;8.246;2023-02-28T04:25:04;7.32;;;4.25;;
22603;SDS011;11469;49.024;8.246;2023-02-28T04:27:30;11.35;;;5.57;;
22603;SDS011;11469;49.024;8.246;2023-02-28T04:29:56;10.85;;;4.80;;
22603;SDS011;11469;49.024;8.246;2023-02-28T04:32:21;11.95;;;4.28;;
22603;SDS011;11469;49.024;8.246;2023-02-28T04:34:46;9.70;;;4.68;;
22603;SDS011;11469;49.024;8.246;2023-02-28T04:37:12;13.00;;;5.00;;
22603;SDS011;11469;49.024;8.246;2023-02-28T04:39:37;11.80;;;4.35;;
22603;SDS011;11469;49.024;8.246;2023-02-28T04:42:03;11.95;;;4.40;;
22603;SDS011;11469;49.024;8.246;2023-02-28T04:44:29;10.45;;;4.85;;
22603;SDS011;11469;49.024;8.246;2023-02-28T04:46:54;9.70;;;4.95;;
22603;SDS011;11469;49.024;8.246;2023-02-28T04:49:19;11.85;;;4.63;;
22603;SDS011;11469;49.024;8.246;2023-02-28T04:51:45;10.90;;;4.40;;
22603;SDS011;11469;49.024;8.246;2023-02-28T04:54:10;10.85;;;4.75;;
22603;SDS011;11469;49.024;8.246;2023-02-28T04:56:36;9.60;;;4.72;;
22603;SDS011;11469;49.024;8.246;2023-02-28T04:59:01;12.77;;;5.22;;
22603;SDS011;11469;49.024;8.246;2023-02-28T05:01:33;10.95;;;5.10;;
22603;SDS011;11469;49.024;8.246;2023-02-28T05:04:00;8.88;;;4.55;;
22603;SDS011;11469;49.024;8.246;2023-02-28T05:06:28;19.05;;;5.53;;
22603;SDS011;11469;49.024;8.246;2023-02-28T05:08:55;9.20;;;5.22;;
22603;SDS011;11469;49.024;8.246;2023-02-28T05:11:24;13.75;;;4.57;;
22603;SDS011;11469;49.024;8.246;2023-02-28T05:13:52;12.45;;;5.40;;
22603;SDS011;11469;49.024;8.246;2023-02-28T05:16:19;7.95;;;4.18;;
22603;SDS011;11469;49.024;8.246;2023-02-28T05:18:44;8.38;;;4.30;;
22603;SDS011;11469;49.024;8.246;2023-02-28T05:23:53;13.80;;;6.47;;
22603;SDS011;11469;49.024;8.246;2023-02-28T05:26:18;11.05;;;5.35;;
22603;SDS011;11469;49.024;8.246;2023-02-28T05:28:44;12.93;;;5.60;;
22603;SDS011;11469;49.024;8.246;2023-02-28T05:31:13;14.52;;;5.03;;
22603;SDS011;11469;49.024;8.246;2023-02-28T05:33:39;12.05;;;4.88;;
22603;SDS011;11469;49.024;8.246;2023-02-28T05:36:05;11.77;;;5.75;;
22603;SDS011;11469;49.024;8.246;2023-02-28T05:38:31;14.15;;;5.45;;
22603;SDS011;11469;49.024;8.246;2023-02-28T05:40:56;13.55;;;7.22;;
22603;SDS011;11469;49.024;8.246;2023-02-28T05:43:22;9.27;;;4.97;;
22603;SDS011;11469;49.024;8.246;2023-02-28T05:45:47;13.10;;;5.25;;
22603;SDS011;11469;49.024;8.246;2023-02-28T05:48:13;14.38;;;5.18;;
22603;SDS011;11469;49.024;8.246;2023-02-28T05:50:38;8.10;;;4.07;;
22603;SDS011;11469;49.024;8.246;2023-02-28T05:53:04;17.05;;;6.30;;
22603;SDS011;11469;49.024;8.246;2023-02-28T05:55:29;10.98;;;5.85;;
22603;SDS011;11469;49.024;8.246;2023-02-28T05:57:54;15.57;;;6.35;;
22603;SDS011;11469;49.024;8.246;2023-02-28T06:00:21;15.23;;;5.93;;
22603;SDS011;11469;49.024;8.246;2023-02-28T06:02:47;13.02;;;6.20;;
22603;SDS011;11469;49.024;8.246;2023-02-28T06:05:13;13.25;;;5.97;;
22603;SDS011;11469;49.024;8.246;2023-02-28T06:07:40;14.73;;;6.35;;
22603;SDS011;11469;49.024;8.246;2023-02-28T06:10:06;12.00;;;5.93;;
22603;SDS011;11469;49.024;8.246;2023-02-28T06:12:32;13.65;;;6.45;;
22603;SDS011;11469;49.024;8.246;2023-02-28T06:14:57;9.98;;;4.70;;
22603;SDS011;11469;49.024;8.246;2023-02-28T06:17:22;11.95;;;5.72;;
22603;SDS011;11469;49.024;8.246;2023-02-28T06:19:48;14.63;;;6.50;;
22603;SDS011;11469;49.024;8.246;2023-02-28T06:22:13;13.55;;;5.85;;
22603;SDS011;11469;49.024;8.246;2023-02-28T06:24:39;15.43;;;6.28;;
22603;SDS011;11469;49.024;8.246;2023-02-28T06:27:04;11.93;;;5.80;;
22603;SDS011;11469;49.024;8.246;2023-02-28T06:29:33;10.95;;;5.75;;
22603;SDS011;11469;49.024;8.246;2023-02-28T06:31:59;15.10;;;5.80;;
22603;SDS011;11469;49.024;8.246;2023-02-28T06:34:25;12.55;;;4.88;;
22603;SDS011;11469;49.024;8.246;2023-02-28T06:36:50;16.00;;;6.30;;
22603;SDS011;11469;49.024;8.246;2023-02-28T06:39:16;14.30;;;6.35;;
22603;SDS011;11469;49.024;8.246;2023-02-28T06:41:43;8.88;;;4.85;;
22603;SDS011;11469;49.024;8.246;2023-02-28T06:44:19;12.70;;;5.53;;
22603;SDS011;11469;49.024;8.246;2023-02-28T06:46:45;13.85;;;6.68;;
22603;SDS011;11469;49.024;8.246;2023-02-28T06:49:11;17.00;;;6.20;;
22603;SDS011;11469;49.024;8.246;2023-02-28T06:51:37;13.30;;;6.22;;
22603;SDS011;11469;49.024;8.246;2023-02-28T06:54:05;19.23;;;7.13;;
22603;SDS011;11469;49.024;8.246;2023-02-28T06:56:34;13.57;;;6.32;;
22603;SDS011;11469;49.024;8.246;2023-02-28T06:59:00;16.38;;;6.28;;
22603;SDS011;11469;49.024;8.246;2023-02-28T07:01:25;18.90;;;5.90;;
22603;SDS011;11469;49.024;8.246;2023-02-28T07:03:52;15.07;;;6.88;;
22603;SDS011;11469;49.024;8.246;2023-02-28T07:06:19;12.35;;;6.15;;
22603;SDS011;11469;49.024;8.246;2023-02-28T07:08:49;11.82;;;5.60;;
22603;SDS011;11469;49.024;8.246;2023-02-28T07:11:15;11.15;;;5.90;;
22603;SDS011;11469;49.024;8.246;2023-02-28T07:13:40;10.15;;;5.03;;
22603;SDS011;11469;49.024;8.246;2023-02-28T07:16:07;11.82;;;4.10;;
22603;SDS011;11469;49.024;8.246;2023-02-28T07:18:35;12.50;;;5.82;;
22603;SDS011;11469;49.024;8.246;2023-02-28T07:21:04;12.05;;;6.38;;
22603;SDS011;11469;49.024;8.246;2023-02-28T07:23:31;9.38;;;5.22;;
22603;SDS011;11469;49.024;8.246;2023-02-28T07:25:57;15.05;;;6.55;;
22603;SDS011;11469;49.024;8.246;2023-02-28T07:28:22;8.20;;;4.65;;
22603;SDS011;11469;49.024;8.246;2023-02-28T07:30:48;13.00;;;6.18;;
22603;SDS011;11469;49.024;8.246;2023-02-28T07:33:13;10.88;;;6.07;;
22603;SDS011;11469;49.024;8.246;2023-02-28T07:35:39;12.98;;;5.75;;
22603;SDS011;11469;49.024;8.246;2023-02-28T07:38:04;11.07;;;5.72;;
22603;SDS011;11469;49.024;8.246;2023-02-28T07:40:32;10.15;;;5.57;;
22603;SDS011;11469;49.024;8.246;2023-02-28T07:42:59;14.52;;;7.65;;
22603;SDS011;11469;49.024;8.246;2023-02-28T07:45:28;12.77;;;6.95;;
22603;SDS011;11469;49.024;8.246;2023-02-28T07:47:54;22.38;;;7.45;;
22603;SDS011;11469;49.024;8.246;2023-02-28T07:50:20;20.70;;;8.38;;
22603;SDS011;11469;49.024;8.246;2023-02-28T07:52:46;9.82;;;5.55;;
22603;SDS011;11469;49.024;8.246;2023-02-28T07:55:11;20.20;;;9.05;;
22603;SDS011;11469;49.024;8.246;2023-02-28T07:57:38;17.42;;;6.68;;
22603;SDS011;11469;49.024;8.246;2023-02-28T08:00:04;15.27;;;7.38;;
22603;SDS011;11469;49.024;8.246;2023-02-28T08:02:30;14.75;;;7.65;;
22603;SDS011;11469;49.024;8.246;2023-02-28T08:04:56;23.75;;;5.90;;
22603;SDS011;11469;49.024;8.246;2023-02-28T08:07:21;12.02;;;6.05;;
22603;SDS011;11469;49.024;8.246;2023-02-28T08:09:47;11.77;;;6.60;;
22603;SDS011;11469;49.024;8.246;2023-02-28T08:12:13;22.15;;;10.98;;
22603;SDS011;11469;49.024;8.246;2023-02-28T08:14:38;15.55;;;7.72;;
22603;SDS011;11469;49.024;8.246;2023-02-28T08:17:04;15.65;;;7.10;;
22603;SDS011;11469;49.024;8.246;2023-02-28T08:19:30;14.02;;;7.63;;
22603;SDS011;11469;49.024;8.246;2023-02-28T08:21:56;14.70;;;6.65;;
22603;SDS011;11469;49.024;8.246;2023-02-28T08:24:22;14.73;;;5.63;;
22603;SDS011;11469;49.024;8.246;2023-02-28T08:26:48;9.70;;;4.60;;
22603;SDS011;11469;49.024;8.246;2023-02-28T08:29:13;13.18;;;6.30;;
22603;SDS011;11469;49.024;8.246;2023-02-28T08:31:38;18.92;;;6.55;;
22603;SDS011;11469;49.024;8.246;2023-02-28T08:34:05;13.40;;;6.40;;
22603;SDS011;11469;49.024;8.246;2023-02-28T08:36:31;13.85;;;6.63;;
22603;SDS011;11469;49.024;8.246;2023-02-28T08:38:57;15.63;;;7.15;;
22603;SDS011;11469;49.024;8.246;2023-02-28T08:41:23;12.95;;;6.78;;
22603;SDS011;11469;49.024;8.246;2023-02-28T08:43:48;17.02;;;5.13;;
22603;SDS011;11469;49.024;8.246;2023-02-28T08:46:13;13.48;;;5.00;;
22603;SDS011;11469;49.024;8.246;2023-02-28T08:48:39;17.50;;;7.82;;
22603;SDS011;11469;49.024;8.246;2023-02-28T08:51:07;14.60;;;6.95;;
22603;SDS011;11469;49.024;8.246;2023-02-28T08:53:38;17.73;;;6.60;;
22603;SDS011;11469;49.024;8.246;2023-02-28T08:56:08;12.63;;;6.97;;
22603;SDS011;11469;49.024;8.246;2023-02-28T08:58:36;14.10;;;7.75;;
22603;SDS011;11469;49.024;8.246;2023-02-28T09:01:07;12.07;;;6.70;;
22603;SDS011;11469;49.024;8.246;2023-02-28T09:03:37;12.32;;;5.05;;
22603;SDS011;11469;49.024;8.246;2023-02-28T09:06:03;16.42;;;7.18;;
22603;SDS011;11469;49.024;8.246;2023-02-28T09:08:29;14.98;;;7.10;;
22603;SDS011;11469;49.024;8.246;2023-02-28T09:10:56;16.58;;;6.38;;
22603;SDS011;11469;49.024;8.246;2023-02-28T09:13:23;13.35;;;6.78;;
22603;SDS011;11469;49.024;8.246;2023-02-28T09:15:49;13.77;;;7.82;;
22603;SDS011;11469;49.024;8.246;2023-02-28T09:18:15;14.55;;;6.38;;
22603;SDS011;11469;49.024;8.246;2023-02-28T09:20:41;17.65;;;8.30;;
22603;SDS011;11469;49.024;8.246;2023-02-28T09:23:08;13.93;;;8.02;;
22603;SDS011;11469;49.024;8.246;2023-02-28T09:25:34;15.85;;;7.25;;
22603;SDS011;11469;49.024;8.246;2023-02-28T09:28:00;18.77;;;8.15;;
22603;SDS011;11469;49.024;8.246;2023-02-28T09:30:28;13.95;;;5.95;;
22603;SDS011;11469;49.024;8.246;2023-02-28T09:32:55;17.40;;;6.80;;
22603;SDS011;11469;49.024;8.246;2023-02-28T09:35:20;15.73;;;7.38;;
22603;SDS011;11469;49.024;8.246;2023-02-28T09:37:49;12.35;;;6.30;;
22603;SDS011;11469;49.024;8.246;2023-02-28T09:40:19;16.73;;;6.30;;
22603;SDS011;11469;49.024;8.246;2023-02-28T09:42:47;43.78;;;16.42;;
22603;SDS011;11469;49.024;8.246;2023-02-28T09:47:52;21.55;;;10.02;;
22603;SDS011;11469;49.024;8.246;2023-02-28T09:53:21;12.38;;;5.95;;
22603;SDS011;11469;49.024;8.246;2023-02-28T09:55:53;21.08;;;8.65;;
22603;SDS011;11469;49.024;8.246;2023-02-28T10:06:21;22.08;;;9.60;;
22603;SDS011;11469;49.024;8.246;2023-02-28T10:09:11;19.05;;;9.75;;
22603;SDS011;11469;49.024;8.246;2023-02-28T10:11:40;13.45;;;7.32;;
22603;SDS011;11469;49.024;8.246;2023-02-28T10:14:13;17.60;;;8.95;;
22603;SDS011;11469;49.024;8.246;2023-02-28T10:16:46;17.98;;;8.90;;
22603;SDS011;11469;49.024;8.246;2023-02-28T10:22:00;14.10;;;8.32;;
22603;SDS011;11469;49.024;8.246;2023-02-28T10:27:01;15.02;;;8.77;;
22603;SDS011;11469;49.024;8.246;2023-02-28T10:29:36;20.48;;;11.85;;
22603;SDS011;11469;49.024;8.246;2023-02-28T10:32:05;20.80;;;8.98;;
22603;SDS011;11469;49.024;8.246;2023-02-28T10:34:30;16.80;;;8.63;;
22603;SDS011;11469;49.024;8.246;2023-02-28T10:36:55;16.55;;;8.88;;
22603;SDS011;11469;49.024;8.246;2023-02-28T10:39:34;17.73;;;8.43;;
22603;SDS011;11469;49.024;8.246;2023-02-28T10:42:02;15.43;;;9.38;;
22603;SDS011;11469;49.024;8.246;2023-02-28T10:44:28;13.30;;;5.97;;
22603;SDS011;11469;49.024;8.246;2023-02-28T10:46:53;18.60;;;9.05;;
22603;SDS011;11469;49.024;8.246;2023-02-28T10:51:52;15.20;;;7.90;;
22603;SDS011;11469;49.024;8.246;2023-02-28T10:54:32;18.00;;;9.02;;
22603;SDS011;11469;49.024;8.246;2023-02-28T10:59:52;22.67;;;9.80;;
22603;SDS011;11469;49.024;8.246;2023-02-28T11:02:37;21.17;;;8.60;;
22603;SDS011;11469;49.024;8.246;2023-02-28T11:05:21;17.08;;;9.52;;
22603;SDS011;11469;49.024;8.246;2023-02-28T11:07:54;16.67;;;9.38;;
22603;SDS011;11469;49.024;8.246;2023-02-28T11:10:24;16.27;;;8.68;;
22603;SDS011;11469;49.024;8.246;2023-02-28T11:12:54;17.58;;;9.10;;
22603;SDS011;11469;49.024;8.246;2023-02-28T11:15:26;24.65;;;9.35;;
22603;SDS011;11469;49.024;8.246;2023-02-28T11:17:59;16.05;;;9.30;;
22603;SDS011;11469;49.024;8.246;2023-02-28T11:20:47;45.08;;;9.27;;
22603;SDS011;11469;49.024;8.246;2023-02-28T11:23:15;14.82;;;9.10;;
22603;SDS011;11469;49.024;8.246;2023-02-28T11:25:45;16.23;;;9.18;;
22603;SDS011;11469;49.024;8.246;2023-02-28T11:28:27;14.25;;;8.27;;
22603;SDS011;11469;49.024;8.246;2023-02-28T11:33:30;13.02;;;7.60;;
22603;SDS011;11469;49.024;8.246;2023-02-28T11:36:01;21.95;;;10.38;;
22603;SDS011;11469;49.024;8.246;2023-02-28T11:38:29;20.30;;;9.60;;
22603;SDS011;11469;49.024;8.246;2023-02-28T11:41:07;19.02;;;9.85;;
22603;SDS011;11469;49.024;8.246;2023-02-28T11:46:41;17.35;;;8.98;;
22603;SDS011;11469;49.024;8.246;2023-02-28T11:52:20;16.60;;;9.05;;
22603;SDS011;11469;49.024;8.246;2023-02-28T11:54:53;15.68;;;8.70;;
22603;SDS011;11469;49.024;8.246;2023-02-28T11:57:29;16.95;;;9.60;;
22603;SDS011;11469;49.024;8.246;2023-02-28T12:05:43;17.70;;;9.32;;
22603;SDS011;11469;49.024;8.246;2023-02-28T12:10:39;16.52;;;8.90;;
22603;SDS011;11469;49.024;8.246;2023-02-28T12:16:17;17.48;;;9.25;;
22603;SDS011;11469;49.024;8.246;2023-02-28T12:21:45;15.55;;;9.27;;
22603;SDS011;11469;49.024;8.246;2023-02-28T12:27:20;22.05;;;10.50;;
22603;SDS011;11469;49.024;8.246;2023-02-28T12:30:01;24.25;;;9.65;;
22603;SDS011;11469;49.024;8.246;2023-02-28T12:32:36;20.00;;;10.88;;
22603;SDS011;11469;49.024;8.246;2023-02-28T12:35:11;19.27;;;9.68;;
22603;SDS011;11469;49.024;8.246;2023-02-28T12:37:44;16.20;;;9.47;;
22603;SDS011;11469;49.024;8.246;2023-02-28T12:40:16;15.98;;;9.00;;
22603;SDS011;11469;49.024;8.246;2023-02-28T12:42:46;21.00;;;10.63;;
22603;SDS011;11469;49.024;8.246;2023-02-28T12:45:24;24.95;;;10.30;;
22603;SDS011;11469;49.024;8.246;2023-02-28T12:47:57;14.63;;;9.15;;
22603;SDS011;11469;49.024;8.246;2023-02-28T12:50:26;13.73;;;7.22;;
22603;SDS011;11469;49.024;8.246;2023-02-28T13:10:06;18.20;;;7.65;;
22603;SDS011;11469;49.024;8.246;2023-02-28T13:12:33;17.90;;;9.93;;
22603;SDS011;11469;49.024;8.246;2023-02-28T13:15:07;17.42;;;8.80;;
22603;SDS011;11469;49.024;8.246;2023-02-28T13:20:19;17.40;;;8.77;;
22603;SDS011;11469;49.024;8.246;2023-02-28T13:22:49;17.25;;;9.32;;
22603;SDS011;11469;49.024;8.246;2023-02-28T13:27:48;19.50;;;8.98;;
22603;SDS011;11469;49.024;8.246;2023-02-28T13:38:42;23.63;;;9.95;;
22603;SDS011;11469;49.024;8.246;2023-02-28T13:46:29;16.58;;;9.48;;
22603;SDS011;11469;49.024;8.246;2023-02-28T13:48:54;17.60;;;9.80;;
22603;SDS011;11469;49.024;8.246;2023-02-28T13:51:37;18.63;;;9.75;;
22603;SDS011;11469;49.024;8.246;2023-02-28T14:05:19;16.95;;;10.15;;
22603;SDS011;11469;49.024;8.246;2023-02-28T14:07:57;16.77;;;9.52;;
22603;SDS011;11469;49.024;8.246;2023-02-28T14:10:30;19.52;;;10.38;;
22603;SDS011;11469;49.024;8.246;2023-02-28T14:13:11;21.27;;;9.90;;
22603;SDS011;11469;49.024;8.246;2023-02-28T14:16:01;19.58;;;9.70;;
22603;SDS011;11469;49.024;8.246;2023-02-28T14:18:30;18.92;;;9.40;;
22603;SDS011;11469;49.024;8.246;2023-02-28T14:23:40;13.52;;;8.85;;
22603;SDS011;11469;49.024;8.246;2023-02-28T14:31:57;16.80;;;9.77;;
22603;SDS011;11469;49.024;8.246;2023-02-28T14:34:26;15.48;;;8.05;;
22603;SDS011;11469;49.024;8.246;2023-02-28T14:37:09;14.93;;;8.85;;
22603;SDS011;11469;49.024;8.246;2023-02-28T14:39:41;18.60;;;11.18;;
22603;SDS011;11469;49.024;8.246;2023-02-28T14:44:54;17.92;;;9.70;;
22603;SDS011;11469;49.024;8.246;2023-02-28T14:47:27;17.33;;;10.00;;
22603;SDS011;11469;49.024;8.246;2023-02-28T14:49:55;17.67;;;10.10;;
22603;SDS011;11469;49.024;8.246;2023-02-28T14:52:26;18.63;;;9.63;;
22603;SDS011;11469;49.024;8.246;2023-02-28T14:55:03;15.43;;;10.00;;
22603;SDS011;11469;49.024;8.246;2023-02-28T14:57:33;20.50;;;10.45;;
22603;SDS011;11469;49.024;8.246;2023-02-28T15:00:07;16.83;;;9.98;;
22603;SDS011;11469;49.024;8.246;2023-02-28T15:02:37;21.30;;;10.63;;
22603;SDS011;11469;49.024;8.246;2023-02-28T15:07:34;17.73;;;9.60;;
22603;SDS011;11469;49.024;8.246;2023-02-28T15:10:10;18.15;;;9.98;;
22603;SDS011;11469;49.024;8.246;2023-02-28T15:12:40;17.20;;;9.30;;
22603;SDS011;11469;49.024;8.246;2023-02-28T15:15:15;17.73;;;9.05;;
22603;SDS011;11469;49.024;8.246;2023-02-28T15:17:42;22.63;;;10.55;;
22603;SDS011;11469;49.024;8.246;2023-02-28T15:20:11;22.85;;;11.40;;
22603;SDS011;11469;49.024;8.246;2023-02-28T15:22:38;19.65;;;8.65;;
22603;SDS011;11469;49.024;8.246;2023-02-28T15:25:04;17.52;;;10.80;;
22603;SDS011;11469;49.024;8.246;2023-02-28T15:27:33;13.43;;;8.55;;
22603;SDS011;11469;49.024;8.246;2023-02-28T15:30:08;18.33;;;10.40;;
22603;SDS011;11469;49.024;8.246;2023-02-28T15:32:40;14.88;;;8.65;;
22603;SDS011;11469;49.024;8.246;2023-02-28T15:37:54;17.08;;;8.93;;
22603;SDS011;11469;49.024;8.246;2023-02-28T15:40:38;18.38;;;8.95;;
22603;SDS011;11469;49.024;8.246;2023-02-28T15:45:58;20.13;;;11.32;;
22603;SDS011;11469;49.024;8.246;2023-02-28T15:50:54;19.35;;;10.60;;
22603;SDS011;11469;49.024;8.246;2023-02-28T15:59:01;19.33;;;8.95;;
22603;SDS011;11469;49.024;8.246;2023-02-28T16:01:32;15.60;;;9.20;;
22603;SDS011;11469;49.024;8.246;2023-02-28T16:04:11;24.90;;;10.43;;
22603;SDS011;11469;49.024;8.246;2023-02-28T16:09:13;20.40;;;9.70;;
22603;SDS011;11469;49.024;8.246;2023-02-28T16:11:44;17.92;;;10.18;;
22603;SDS011;11469;49.024;8.246;2023-02-28T16:14:14;27.00;;;10.55;;
22603;SDS011;11469;49.024;8.246;2023-02-28T16:16:42;18.70;;;9.77;;
22603;SDS011;11469;49.024;8.246;2023-02-28T16:19:09;17.05;;;9.35;;
22603;SDS011;11469;49.024;8.246;2023-02-28T16:21:34;17.75;;;10.02;;
22603;SDS011;11469;49.024;8.246;2023-02-28T16:24:00;17.45;;;9.38;;
22603;SDS011;11469;49.024;8.246;2023-02-28T16:26:25;24.60;;;12.95;;
22603;SDS011;11469;49.024;8.246;2023-02-28T16:28:52;17.38;;;8.68;;
22603;SDS011;11469;49.024;8.246;2023-02-28T16:31:18;28.92;;;12.77;;
22603;SDS011;11469;49.024;8.246;2023-02-28T16:33:44;18.02;;;10.40;;
22603;SDS011;11469;49.024;8.246;2023-02-28T16:36:18;21.95;;;11.32;;
22603;SDS011;11469;49.024;8.246;2023-02-28T16:41:16;22.17;;;11.70;;
22603;SDS011;11469;49.024;8.246;2023-02-28T16:43:46;20.95;;;11.60;;
22603;SDS011;11469;49.024;8.246;2023-02-28T16:46:13;18.67;;;10.38;;
22603;SDS011;11469;49.024;8.246;2023-02-28T16:48:41;18.80;;;11.57;;
22603;SDS011;11469;49.024;8.246;2023-02-28T16:51:14;24.27;;;11.07;;
22603;SDS011;11469;49.024;8.246;2023-02-28T16:53:40;20.27;;;11.02;;
22603;SDS011;11469;49.024;8.246;2023-02-28T16:56:08;21.98;;;10.55;;
22603;SDS011;11469;49.024;8.246;2023-02-28T16:58:40;16.10;;;8.77;;
22603;SDS011;11469;49.024;8.246;2023-02-28T17:01:05;17.15;;;10.15;;
22603;SDS011;11469;49.024;8.246;2023-02-28T17:03:30;23.58;;;11.23;;
22603;SDS011;11469;49.024;8.246;2023-02-28T17:05:56;22.17;;;11.60;;
22603;SDS011;11469;49.024;8.246;2023-02-28T17:08:21;22.65;;;12.63;;
22603;SDS011;11469;49.024;8.246;2023-02-28T17:10:47;27.50;;;14.32;;
22603;SDS011;11469;49.024;8.246;2023-02-28T17:13:12;20.00;;;12.15;;
22603;SDS011;11469;49.024;8.246;2023-02-28T17:15:37;24.92;;;11.95;;
22603;SDS011;11469;49.024;8.246;2023-02-28T17:18:04;18.20;;;10.57;;
22603;SDS011;11469;49.024;8.246;2023-02-28T17:20:30;16.10;;;8.55;;
22603;SDS011;11469;49.024;8.246;2023-02-28T17:22:55;19.38;;;10.13;;
22603;SDS011;11469;49.024;8.246;2023-02-28T17:25:21;21.17;;;10.20;;
22603;SDS011;11469;49.024;8.246;2023-02-28T17:27:48;22.02;;;11.18;;
22603;SDS011;11469;49.024;8.246;2023-02-28T17:30:18;24.88;;;11.90;;
22603;SDS011;11469;49.024;8.246;2023-02-28T17:32:45;27.42;;;11.90;;